sensor_id;sensor_type;location;lat;lon;timestamp;temperature;humidity
2220;DHT22;1116;51.502;7.414;2024-02-23T00:02:19;8.50;55.40
2220;DHT22;1116;51.502;7.414;2024-02-23T00:04:49;8.40;55.30
2220;DHT22;1116;51.502;7.414;2024-02-23T00:07:22;8.40;56.30
2220;DHT22;1116;51.502;7.414;2024-02-23T00:09:52;8.10;57.10
2220;DHT22;1116;51.502;7.414;2024-02-23T00:12:22;8.10;59.70
2220;DHT22;1116;51.502;7.414;2024-02-23T00:14:52;8.10;59.40
2220;DHT22;1116;51.502;7.414;2024-02-23T00:17:22;8.10;58.60
2220;DHT22;1116;51.502;7.414;2024-02-23T00:19:52;8.10;59.80
2220;DHT22;1116;51.502;7.414;2024-02-23T00:22:25;8.20;60.00
2220;DHT22;1116;51.502;7.414;2024-02-23T00:24:58;8.20;58.00
2220;DHT22;1116;51.502;7.414;2024-02-23T00:27:28;8.20;59.30
2220;DHT22;1116;51.502;7.414;2024-02-23T00:29:58;8.20;58.20
2220;DHT22;1116;51.502;7.414;2024-02-23T00:32:28;8.20;57.90
2220;DHT22;1116;51.502;7.414;2024-02-23T00:34:59;8.10;55.50
2220;DHT22;1116;51.502;7.414;2024-02-23T00:37:32;8.10;55.50
2220;DHT22;1116;51.502;7.414;2024-02-23T00:40:02;8.10;55.00
2220;DHT22;1116;51.502;7.414;2024-02-23T00:42:33;8.20;55.90
2220;DHT22;1116;51.502;7.414;2024-02-23T00:45:04;8.20;55.80
2220;DHT22;1116;51.502;7.414;2024-02-23T00:47:35;8.20;54.30
2220;DHT22;1116;51.502;7.414;2024-02-23T00:50:06;8.30;55.70
2220;DHT22;1116;51.502;7.414;2024-02-23T00:52:40;8.10;58.90
2220;DHT22;1116;51.502;7.414;2024-02-23T00:55:10;7.90;59.90
2220;DHT22;1116;51.502;7.414;2024-02-23T00:57:40;7.70;62.00
2220;DHT22;1116;51.502;7.414;2024-02-23T01:00:11;7.70;60.40
2220;DHT22;1116;51.502;7.414;2024-02-23T01:02:41;7.80;62.10
2220;DHT22;1116;51.502;7.414;2024-02-23T01:05:11;7.90;59.00
2220;DHT22;1116;51.502;7.414;2024-02-23T01:07:44;7.90;59.30
2220;DHT22;1116;51.502;7.414;2024-02-23T01:10:14;7.80;58.30
2220;DHT22;1116;51.502;7.414;2024-02-23T01:12:44;7.80;58.80
2220;DHT22;1116;51.502;7.414;2024-02-23T01:15:15;7.80;57.90
2220;DHT22;1116;51.502;7.414;2024-02-23T01:17:45;7.80;56.40
2220;DHT22;1116;51.502;7.414;2024-02-23T01:20:15;7.80;56.90
2220;DHT22;1116;51.502;7.414;2024-02-23T01:22:48;7.80;56.20
2220;DHT22;1116;51.502;7.414;2024-02-23T01:25:18;7.80;57.20
2220;DHT22;1116;51.502;7.414;2024-02-23T01:27:48;7.70;54.20
2220;DHT22;1116;51.502;7.414;2024-02-23T01:30:18;7.60;55.80
2220;DHT22;1116;51.502;7.414;2024-02-23T01:32:48;7.60;55.40
2220;DHT22;1116;51.502;7.414;2024-02-23T01:35:18;7.60;56.00
2220;DHT22;1116;51.502;7.414;2024-02-23T01:37:52;7.60;55.00
2220;DHT22;1116;51.502;7.414;2024-02-23T01:40:22;7.60;55.70
2220;DHT22;1116;51.502;7.414;2024-02-23T01:43:01;7.50;54.60
2220;DHT22;1116;51.502;7.414;2024-02-23T01:45:32;7.50;55.50
2220;DHT22;1116;51.502;7.414;2024-02-23T01:48:02;7.50;55.50
2220;DHT22;1116;51.502;7.414;2024-02-23T01:50:32;7.50;55.30
2220;DHT22;1116;51.502;7.414;2024-02-23T01:53:05;7.50;55.30
2220;DHT22;1116;51.502;7.414;2024-02-23T01:55:36;7.50;54.90
2220;DHT22;1116;51.502;7.414;2024-02-23T01:58:06;7.50;53.70
2220;DHT22;1116;51.502;7.414;2024-02-23T02:00:37;7.60;54.70
2220;DHT22;1116;51.502;7.414;2024-02-23T02:03:08;7.60;53.70
2220;DHT22;1116;51.502;7.414;2024-02-23T02:05:39;7.70;53.80
2220;DHT22;1116;51.502;7.414;2024-02-23T02:08:13;7.80;54.80
2220;DHT22;1116;51.502;7.414;2024-02-23T02:10:43;7.80;53.90
2220;DHT22;1116;51.502;7.414;2024-02-23T02:13:14;7.80;54.60
2220;DHT22;1116;51.502;7.414;2024-02-23T02:15:44;7.80;53.90
2220;DHT22;1116;51.502;7.414;2024-02-23T02:18:14;7.80;52.70
2220;DHT22;1116;51.502;7.414;2024-02-23T02:20:51;7.80;53.20
2220;DHT22;1116;51.502;7.414;2024-02-23T02:23:25;7.70;52.60
2220;DHT22;1116;51.502;7.414;2024-02-23T02:25:56;7.80;52.90
2220;DHT22;1116;51.502;7.414;2024-02-23T02:28:27;7.80;53.00
2220;DHT22;1116;51.502;7.414;2024-02-23T02:30:57;7.80;52.50
2220;DHT22;1116;51.502;7.414;2024-02-23T02:33:27;7.80;52.60
2220;DHT22;1116;51.502;7.414;2024-02-23T02:35:57;7.80;52.80
2220;DHT22;1116;51.502;7.414;2024-02-23T02:38:30;7.80;51.70
2220;DHT22;1116;51.502;7.414;2024-02-23T02:41:00;7.90;51.40
2220;DHT22;1116;51.502;7.414;2024-02-23T02:43:31;7.90;51.10
2220;DHT22;1116;51.502;7.414;2024-02-23T02:46:02;7.90;51.40
2220;DHT22;1116;51.502;7.414;2024-02-23T02:48:32;7.90;51.40
2220;DHT22;1116;51.502;7.414;2024-02-23T02:51:03;7.80;50.80
2220;DHT22;1116;51.502;7.414;2024-02-23T02:53:36;7.90;50.70
2220;DHT22;1116;51.502;7.414;2024-02-23T02:56:06;7.80;50.10
2220;DHT22;1116;51.502;7.414;2024-02-23T02:58:36;7.90;50.70
2220;DHT22;1116;51.502;7.414;2024-02-23T03:01:06;7.90;50.80
2220;DHT22;1116;51.502;7.414;2024-02-23T03:03:36;7.90;50.80
2220;DHT22;1116;51.502;7.414;2024-02-23T03:06:06;7.80;49.40
2220;DHT22;1116;51.502;7.414;2024-02-23T03:08:41;7.80;50.50
2220;DHT22;1116;51.502;7.414;2024-02-23T03:11:11;7.70;51.40
2220;DHT22;1116;51.502;7.414;2024-02-23T03:13:42;7.70;50.40
2220;DHT22;1116;51.502;7.414;2024-02-23T03:16:14;7.70;51.40
2220;DHT22;1116;51.502;7.414;2024-02-23T03:18:45;7.80;52.00
2220;DHT22;1116;51.502;7.414;2024-02-23T03:21:16;7.70;51.10
2220;DHT22;1116;51.502;7.414;2024-02-23T03:23:48;9.40;53.00
2220;DHT22;1116;51.502;7.414;2024-02-23T03:26:18;7.80;51.50
2220;DHT22;1116;51.502;7.414;2024-02-23T03:28:48;7.70;51.20
2220;DHT22;1116;51.502;7.414;2024-02-23T03:31:18;7.70;51.00
2220;DHT22;1116;51.502;7.414;2024-02-23T03:33:48;7.70;50.80
2220;DHT22;1116;51.502;7.414;2024-02-23T03:36:18;7.70;50.70
2220;DHT22;1116;51.502;7.414;2024-02-23T03:38:51;7.50;51.10
2220;DHT22;1116;51.502;7.414;2024-02-23T03:41:21;7.40;51.10
2220;DHT22;1116;51.502;7.414;2024-02-23T03:43:51;7.40;51.40
2220;DHT22;1116;51.502;7.414;2024-02-23T03:46:21;7.40;51.10
2220;DHT22;1116;51.502;7.414;2024-02-23T03:48:51;7.40;51.20
2220;DHT22;1116;51.502;7.414;2024-02-23T03:51:22;7.40;51.40
2220;DHT22;1116;51.502;7.414;2024-02-23T03:53:55;7.50;51.10
2220;DHT22;1116;51.502;7.414;2024-02-23T03:56:25;7.50;51.20
2220;DHT22;1116;51.502;7.414;2024-02-23T03:58:55;7.50;51.10
2220;DHT22;1116;51.502;7.414;2024-02-23T04:01:25;7.60;51.40
2220;DHT22;1116;51.502;7.414;2024-02-23T04:03:55;7.60;50.80
2220;DHT22;1116;51.502;7.414;2024-02-23T04:06:25;7.60;50.40
2220;DHT22;1116;51.502;7.414;2024-02-23T04:08:58;7.60;50.90
2220;DHT22;1116;51.502;7.414;2024-02-23T04:11:28;7.60;50.30
2220;DHT22;1116;51.502;7.414;2024-02-23T04:13:58;7.50;50.40
2220;DHT22;1116;51.502;7.414;2024-02-23T04:16:28;7.50;50.40
2220;DHT22;1116;51.502;7.414;2024-02-23T04:18:58;7.60;50.50
2220;DHT22;1116;51.502;7.414;2024-02-23T04:21:28;7.60;49.50
2220;DHT22;1116;51.502;7.414;2024-02-23T04:24:01;7.70;49.50
2220;DHT22;1116;51.502;7.414;2024-02-23T04:26:31;7.70;49.60
2220;DHT22;1116;51.502;7.414;2024-02-23T04:29:01;7.70;49.10
2220;DHT22;1116;51.502;7.414;2024-02-23T04:31:31;7.70;49.00
2220;DHT22;1116;51.502;7.414;2024-02-23T04:34:01;7.60;48.80
2220;DHT22;1116;51.502;7.414;2024-02-23T04:36:32;7.60;48.60
2220;DHT22;1116;51.502;7.414;2024-02-23T04:39:04;7.60;48.60
2220;DHT22;1116;51.502;7.414;2024-02-23T04:41:34;7.60;48.60
2220;DHT22;1116;51.502;7.414;2024-02-23T04:44:04;7.60;48.40
2220;DHT22;1116;51.502;7.414;2024-02-23T04:46:35;7.60;48.50
2220;DHT22;1116;51.502;7.414;2024-02-23T04:49:05;7.50;48.30
2220;DHT22;1116;51.502;7.414;2024-02-23T04:51:38;7.60;48.80
2220;DHT22;1116;51.502;7.414;2024-02-23T04:54:11;7.50;47.70
2220;DHT22;1116;51.502;7.414;2024-02-23T04:56:41;7.60;47.80
2220;DHT22;1116;51.502;7.414;2024-02-23T04:59:11;7.60;47.80
2220;DHT22;1116;51.502;7.414;2024-02-23T05:01:42;7.60;47.60
2220;DHT22;1116;51.502;7.414;2024-02-23T05:04:12;7.60;47.70
2220;DHT22;1116;51.502;7.414;2024-02-23T05:06:42;7.70;47.90
2220;DHT22;1116;51.502;7.414;2024-02-23T05:09:15;7.70;47.40
2220;DHT22;1116;51.502;7.414;2024-02-23T05:11:45;7.70;46.80
2220;DHT22;1116;51.502;7.414;2024-02-23T05:14:15;7.70;47.30
2220;DHT22;1116;51.502;7.414;2024-02-23T05:16:45;7.70;47.00
2220;DHT22;1116;51.502;7.414;2024-02-23T05:19:15;7.70;46.80
2220;DHT22;1116;51.502;7.414;2024-02-23T05:21:45;7.70;47.50
2220;DHT22;1116;51.502;7.414;2024-02-23T05:24:18;7.70;46.60
2220;DHT22;1116;51.502;7.414;2024-02-23T05:26:48;6.10;45.20
2220;DHT22;1116;51.502;7.414;2024-02-23T05:29:18;7.70;46.60
2220;DHT22;1116;51.502;7.414;2024-02-23T05:31:51;7.70;46.90
2220;DHT22;1116;51.502;7.414;2024-02-23T05:34:21;7.70;46.80
2220;DHT22;1116;51.502;7.414;2024-02-23T05:36:51;7.70;46.80
2220;DHT22;1116;51.502;7.414;2024-02-23T05:39:25;7.70;46.90
2220;DHT22;1116;51.502;7.414;2024-02-23T05:41:56;7.80;47.10
2220;DHT22;1116;51.502;7.414;2024-02-23T05:44:26;7.80;46.70
2220;DHT22;1116;51.502;7.414;2024-02-23T05:46:57;7.70;45.70
2220;DHT22;1116;51.502;7.414;2024-02-23T05:49:27;7.80;46.70
2220;DHT22;1116;51.502;7.414;2024-02-23T05:51:57;7.60;46.30
2220;DHT22;1116;51.502;7.414;2024-02-23T05:54:29;7.60;46.70
2220;DHT22;1116;51.502;7.414;2024-02-23T05:56:59;7.50;47.70
2220;DHT22;1116;51.502;7.414;2024-02-23T05:59:30;7.40;46.70
2220;DHT22;1116;51.502;7.414;2024-02-23T06:02:00;7.40;46.80
2220;DHT22;1116;51.502;7.414;2024-02-23T06:04:30;7.40;47.30
2220;DHT22;1116;51.502;7.414;2024-02-23T06:07:00;7.30;47.20
2220;DHT22;1116;51.502;7.414;2024-02-23T06:09:33;7.30;47.30
2220;DHT22;1116;51.502;7.414;2024-02-23T06:12:04;7.30;47.50
2220;DHT22;1116;51.502;7.414;2024-02-23T06:14:36;7.30;47.30
2220;DHT22;1116;51.502;7.414;2024-02-23T06:17:06;7.30;47.50
2220;DHT22;1116;51.502;7.414;2024-02-23T06:19:37;7.20;47.50
2220;DHT22;1116;51.502;7.414;2024-02-23T06:22:07;7.20;47.40
2220;DHT22;1116;51.502;7.414;2024-02-23T06:24:40;7.20;47.40
2220;DHT22;1116;51.502;7.414;2024-02-23T06:27:10;7.20;47.50
2220;DHT22;1116;51.502;7.414;2024-02-23T06:29:40;7.20;47.90
2220;DHT22;1116;51.502;7.414;2024-02-23T06:32:10;7.20;47.40
2220;DHT22;1116;51.502;7.414;2024-02-23T06:34:41;7.10;47.00
2220;DHT22;1116;51.502;7.414;2024-02-23T06:37:11;7.20;47.40
2220;DHT22;1116;51.502;7.414;2024-02-23T06:39:44;7.10;47.40
2220;DHT22;1116;51.502;7.414;2024-02-23T06:42:18;7.20;46.90
2220;DHT22;1116;51.502;7.414;2024-02-23T06:44:49;7.20;47.10
2220;DHT22;1116;51.502;7.414;2024-02-23T06:47:20;7.30;46.60
2220;DHT22;1116;51.502;7.414;2024-02-23T06:49:51;7.30;46.40
2220;DHT22;1116;51.502;7.414;2024-02-23T06:52:21;7.50;47.10
2220;DHT22;1116;51.502;7.414;2024-02-23T06:54:55;7.50;46.00
2220;DHT22;1116;51.502;7.414;2024-02-23T06:57:26;7.50;46.50
2220;DHT22;1116;51.502;7.414;2024-02-23T06:59:57;7.50;46.00
2220;DHT22;1116;51.502;7.414;2024-02-23T07:02:28;7.50;45.70
2220;DHT22;1116;51.502;7.414;2024-02-23T07:05:01;7.50;46.50
2220;DHT22;1116;51.502;7.414;2024-02-23T07:07:32;7.50;46.00
2220;DHT22;1116;51.502;7.414;2024-02-23T07:10:07;7.40;45.70
2220;DHT22;1116;51.502;7.414;2024-02-23T07:12:37;7.30;46.10
2220;DHT22;1116;51.502;7.414;2024-02-23T07:15:08;7.40;46.60
2220;DHT22;1116;51.502;7.414;2024-02-23T07:17:38;7.40;46.20
2220;DHT22;1116;51.502;7.414;2024-02-23T07:20:10;7.40;47.00
2220;DHT22;1116;51.502;7.414;2024-02-23T07:22:43;7.50;46.60
2220;DHT22;1116;51.502;7.414;2024-02-23T07:25:19;7.60;46.40
2220;DHT22;1116;51.502;7.414;2024-02-23T07:27:50;7.60;46.20
2220;DHT22;1116;51.502;7.414;2024-02-23T07:30:20;7.60;46.10
2220;DHT22;1116;51.502;7.414;2024-02-23T07:32:50;7.60;46.50
2220;DHT22;1116;51.502;7.414;2024-02-23T07:35:20;7.70;46.60
2220;DHT22;1116;51.502;7.414;2024-02-23T07:37:50;7.80;45.90
2220;DHT22;1116;51.502;7.414;2024-02-23T07:40:23;7.80;44.80
2220;DHT22;1116;51.502;7.414;2024-02-23T07:42:53;7.90;44.80
2220;DHT22;1116;51.502;7.414;2024-02-23T07:45:23;8.00;45.30
2220;DHT22;1116;51.502;7.414;2024-02-23T07:47:53;8.00;44.10
2220;DHT22;1116;51.502;7.414;2024-02-23T07:50:23;8.30;44.10
2220;DHT22;1116;51.502;7.414;2024-02-23T07:52:54;8.30;43.80
2220;DHT22;1116;51.502;7.414;2024-02-23T07:55:26;8.50;43.70
2220;DHT22;1116;51.502;7.414;2024-02-23T07:57:56;8.70;43.30
2220;DHT22;1116;51.502;7.414;2024-02-23T08:00:28;8.60;42.70
2220;DHT22;1116;51.502;7.414;2024-02-23T08:02:59;8.40;42.50
2220;DHT22;1116;51.502;7.414;2024-02-23T08:05:29;8.30;43.90
2220;DHT22;1116;51.502;7.414;2024-02-23T08:08:00;8.30;44.40
2220;DHT22;1116;51.502;7.414;2024-02-23T08:10:32;8.50;43.20
2220;DHT22;1116;51.502;7.414;2024-02-23T08:13:03;8.70;43.70
2220;DHT22;1116;51.502;7.414;2024-02-23T08:15:33;8.90;42.90
2220;DHT22;1116;51.502;7.414;2024-02-23T08:18:05;9.30;42.50
2220;DHT22;1116;51.502;7.414;2024-02-23T08:20:35;9.40;40.40
2220;DHT22;1116;51.502;7.414;2024-02-23T08:23:06;9.50;38.90
2220;DHT22;1116;51.502;7.414;2024-02-23T08:25:38;9.80;40.40
2220;DHT22;1116;51.502;7.414;2024-02-23T08:28:08;11.30;36.20
2220;DHT22;1116;51.502;7.414;2024-02-23T08:30:38;13.00;28.10
2220;DHT22;1116;51.502;7.414;2024-02-23T08:33:08;13.70;25.20
2220;DHT22;1116;51.502;7.414;2024-02-23T08:35:39;14.30;23.70
2220;DHT22;1116;51.502;7.414;2024-02-23T08:38:10;14.90;22.30
2220;DHT22;1116;51.502;7.414;2024-02-23T08:40:43;15.50;20.90
2220;DHT22;1116;51.502;7.414;2024-02-23T08:43:13;16.00;18.50
2220;DHT22;1116;51.502;7.414;2024-02-23T08:45:43;15.80;18.90
2220;DHT22;1116;51.502;7.414;2024-02-23T08:48:13;16.20;17.60
2220;DHT22;1116;51.502;7.414;2024-02-23T08:50:45;15.10;18.20
2220;DHT22;1116;51.502;7.414;2024-02-23T08:53:15;13.30;21.40
2220;DHT22;1116;51.502;7.414;2024-02-23T08:55:48;12.10;25.00
2220;DHT22;1116;51.502;7.414;2024-02-23T08:58:18;11.90;26.90
2220;DHT22;1116;51.502;7.414;2024-02-23T09:00:48;12.40;26.40
2220;DHT22;1116;51.502;7.414;2024-02-23T09:03:18;12.90;24.60
2220;DHT22;1116;51.502;7.414;2024-02-23T09:05:49;12.60;23.90
2220;DHT22;1116;51.502;7.414;2024-02-23T09:08:19;13.60;23.60
2220;DHT22;1116;51.502;7.414;2024-02-23T09:10:52;12.70;23.90
2220;DHT22;1116;51.502;7.414;2024-02-23T09:13:22;11.80;26.10
2220;DHT22;1116;51.502;7.414;2024-02-23T09:15:53;11.60;27.40
2220;DHT22;1116;51.502;7.414;2024-02-23T09:18:24;11.10;28.40
2220;DHT22;1116;51.502;7.414;2024-02-23T09:20:54;10.60;29.70
2220;DHT22;1116;51.502;7.414;2024-02-23T09:23:24;10.10;30.50
2220;DHT22;1116;51.502;7.414;2024-02-23T09:25:57;10.10;30.80
2220;DHT22;1116;51.502;7.414;2024-02-23T09:28:27;10.10;31.30
2220;DHT22;1116;51.502;7.414;2024-02-23T09:30:59;10.00;32.50
2220;DHT22;1116;51.502;7.414;2024-02-23T09:33:30;9.90;33.50
2220;DHT22;1116;51.502;7.414;2024-02-23T09:36:00;9.90;33.00
2220;DHT22;1116;51.502;7.414;2024-02-23T09:38:31;9.90;33.50
2220;DHT22;1116;51.502;7.414;2024-02-23T09:41:03;10.00;32.40
2220;DHT22;1116;51.502;7.414;2024-02-23T09:43:34;10.00;32.10
2220;DHT22;1116;51.502;7.414;2024-02-23T09:46:04;9.80;33.00
2220;DHT22;1116;51.502;7.414;2024-02-23T09:48:34;9.80;33.40
2220;DHT22;1116;51.502;7.414;2024-02-23T09:51:10;9.40;34.30
2220;DHT22;1116;51.502;7.414;2024-02-23T09:53:41;9.70;34.40
2220;DHT22;1116;51.502;7.414;2024-02-23T09:56:15;9.80;34.20
2220;DHT22;1116;51.502;7.414;2024-02-23T09:58:47;9.80;34.40
2220;DHT22;1116;51.502;7.414;2024-02-23T10:01:27;10.60;32.20
2220;DHT22;1116;51.502;7.414;2024-02-23T10:03:58;11.50;31.80
2220;DHT22;1116;51.502;7.414;2024-02-23T10:06:32;10.30;30.70
2220;DHT22;1116;51.502;7.414;2024-02-23T10:09:02;10.30;31.70
2220;DHT22;1116;51.502;7.414;2024-02-23T10:11:36;9.90;33.00
2220;DHT22;1116;51.502;7.414;2024-02-23T10:14:07;10.00;33.10
2220;DHT22;1116;51.502;7.414;2024-02-23T10:16:38;9.90;33.70
2220;DHT22;1116;51.502;7.414;2024-02-23T10:19:08;9.80;33.80
2220;DHT22;1116;51.502;7.414;2024-02-23T10:21:38;9.90;35.50
2220;DHT22;1116;51.502;7.414;2024-02-23T10:24:09;10.20;31.30
2220;DHT22;1116;51.502;7.414;2024-02-23T10:26:42;10.10;31.40
2220;DHT22;1116;51.502;7.414;2024-02-23T10:29:13;10.10;30.50
2220;DHT22;1116;51.502;7.414;2024-02-23T10:31:46;10.10;31.60
2220;DHT22;1116;51.502;7.414;2024-02-23T10:34:19;10.10;32.50
2220;DHT22;1116;51.502;7.414;2024-02-23T10:36:50;10.00;33.00
2220;DHT22;1116;51.502;7.414;2024-02-23T10:39:24;10.10;33.40
2220;DHT22;1116;51.502;7.414;2024-02-23T10:42:02;9.80;34.10
2220;DHT22;1116;51.502;7.414;2024-02-23T10:44:33;9.70;35.10
2220;DHT22;1116;51.502;7.414;2024-02-23T10:47:05;10.00;34.50
2220;DHT22;1116;51.502;7.414;2024-02-23T10:49:36;10.10;34.00
2220;DHT22;1116;51.502;7.414;2024-02-23T10:52:15;9.90;34.70
2220;DHT22;1116;51.502;7.414;2024-02-23T10:54:46;10.10;33.70
2220;DHT22;1116;51.502;7.414;2024-02-23T10:57:21;10.40;32.70
2220;DHT22;1116;51.502;7.414;2024-02-23T10:59:51;10.80;32.00
2220;DHT22;1116;51.502;7.414;2024-02-23T11:02:22;11.10;30.40
2220;DHT22;1116;51.502;7.414;2024-02-23T11:04:58;10.90;31.20
2220;DHT22;1116;51.502;7.414;2024-02-23T11:07:31;10.80;31.10
2220;DHT22;1116;51.502;7.414;2024-02-23T11:10:04;10.60;31.00
2220;DHT22;1116;51.502;7.414;2024-02-23T11:12:38;10.70;31.10
2220;DHT22;1116;51.502;7.414;2024-02-23T11:15:09;10.70;30.50
2220;DHT22;1116;51.502;7.414;2024-02-23T11:17:39;10.70;30.00
2220;DHT22;1116;51.502;7.414;2024-02-23T11:20:14;11.00;29.70
2220;DHT22;1116;51.502;7.414;2024-02-23T11:22:56;11.40;28.70
2220;DHT22;1116;51.502;7.414;2024-02-23T11:25:27;11.10;27.60
2220;DHT22;1116;51.502;7.414;2024-02-23T11:28:04;12.00;27.20
2220;DHT22;1116;51.502;7.414;2024-02-23T11:30:34;12.70;25.30
2220;DHT22;1116;51.502;7.414;2024-02-23T11:33:08;13.40;24.40
2220;DHT22;1116;51.502;7.414;2024-02-23T11:35:46;13.10;23.90
2220;DHT22;1116;51.502;7.414;2024-02-23T11:38:20;12.90;23.70
2220;DHT22;1116;51.502;7.414;2024-02-23T11:40:51;12.80;23.30
2220;DHT22;1116;51.502;7.414;2024-02-23T11:43:24;12.50;23.70
2220;DHT22;1116;51.502;7.414;2024-02-23T11:45:55;12.50;24.40
2220;DHT22;1116;51.502;7.414;2024-02-23T11:48:25;12.50;25.00
2220;DHT22;1116;51.502;7.414;2024-02-23T11:50:56;12.00;25.20
2220;DHT22;1116;51.502;7.414;2024-02-23T11:53:26;11.60;25.50
2220;DHT22;1116;51.502;7.414;2024-02-23T11:55:57;11.50;26.10
2220;DHT22;1116;51.502;7.414;2024-02-23T11:58:30;11.30;26.20
2220;DHT22;1116;51.502;7.414;2024-02-23T12:01:00;11.00;27.10
2220;DHT22;1116;51.502;7.414;2024-02-23T12:03:30;11.10;27.40
2220;DHT22;1116;51.502;7.414;2024-02-23T12:06:01;11.20;26.80
2220;DHT22;1116;51.502;7.414;2024-02-23T12:08:32;11.30;27.30
2220;DHT22;1116;51.502;7.414;2024-02-23T12:11:05;11.20;27.50
2220;DHT22;1116;51.502;7.414;2024-02-23T12:13:40;11.10;27.70
2220;DHT22;1116;51.502;7.414;2024-02-23T12:16:10;11.10;28.00
2220;DHT22;1116;51.502;7.414;2024-02-23T12:18:40;11.00;27.70
2220;DHT22;1116;51.502;7.414;2024-02-23T12:21:10;11.10;29.50
2220;DHT22;1116;51.502;7.414;2024-02-23T12:23:40;11.10;27.90
2220;DHT22;1116;51.502;7.414;2024-02-23T12:26:14;11.10;28.30
2220;DHT22;1116;51.502;7.414;2024-02-23T12:28:48;11.10;28.70
2220;DHT22;1116;51.502;7.414;2024-02-23T12:31:23;11.00;28.80
2220;DHT22;1116;51.502;7.414;2024-02-23T12:33:57;10.80;29.00
2220;DHT22;1116;51.502;7.414;2024-02-23T12:36:28;10.80;29.90
2220;DHT22;1116;51.502;7.414;2024-02-23T12:39:02;10.70;29.70
2220;DHT22;1116;51.502;7.414;2024-02-23T12:41:32;10.80;29.30
2220;DHT22;1116;51.502;7.414;2024-02-23T12:44:05;10.70;29.50
2220;DHT22;1116;51.502;7.414;2024-02-23T12:46:36;10.70;29.60
2220;DHT22;1116;51.502;7.414;2024-02-23T12:49:06;10.70;29.80
2220;DHT22;1116;51.502;7.414;2024-02-23T12:51:36;10.70;29.20
2220;DHT22;1116;51.502;7.414;2024-02-23T12:54:06;10.60;29.30
2220;DHT22;1116;51.502;7.414;2024-02-23T12:56:36;10.50;29.40
2220;DHT22;1116;51.502;7.414;2024-02-23T12:59:09;10.60;29.60
2220;DHT22;1116;51.502;7.414;2024-02-23T13:01:39;10.70;28.90
2220;DHT22;1116;51.502;7.414;2024-02-23T13:04:13;10.90;29.50
2220;DHT22;1116;51.502;7.414;2024-02-23T13:06:43;10.90;28.80
2220;DHT22;1116;51.502;7.414;2024-02-23T13:09:14;10.80;28.80
2220;DHT22;1116;51.502;7.414;2024-02-23T13:11:44;10.90;28.60
2220;DHT22;1116;51.502;7.414;2024-02-23T13:14:18;10.90;28.80
2220;DHT22;1116;51.502;7.414;2024-02-23T13:16:48;11.00;28.90
2220;DHT22;1116;51.502;7.414;2024-02-23T13:19:18;11.10;29.10
2220;DHT22;1116;51.502;7.414;2024-02-23T13:21:48;11.30;28.50
2220;DHT22;1116;51.502;7.414;2024-02-23T13:24:18;11.60;27.50
2220;DHT22;1116;51.502;7.414;2024-02-23T13:26:49;11.40;27.70
2220;DHT22;1116;51.502;7.414;2024-02-23T13:29:22;11.40;28.70
2220;DHT22;1116;51.502;7.414;2024-02-23T13:31:52;11.30;29.30
2220;DHT22;1116;51.502;7.414;2024-02-23T13:34:22;11.30;29.30
2220;DHT22;1116;51.502;7.414;2024-02-23T13:36:52;11.40;30.10
2220;DHT22;1116;51.502;7.414;2024-02-23T13:39:22;11.20;29.40
2220;DHT22;1116;51.502;7.414;2024-02-23T13:41:52;11.00;30.50
2220;DHT22;1116;51.502;7.414;2024-02-23T13:44:25;11.70;29.70
2220;DHT22;1116;51.502;7.414;2024-02-23T13:46:55;11.70;29.00
2220;DHT22;1116;51.502;7.414;2024-02-23T13:49:25;11.50;29.50
2220;DHT22;1116;51.502;7.414;2024-02-23T13:51:55;11.50;30.00
2220;DHT22;1116;51.502;7.414;2024-02-23T13:54:25;11.50;30.50
2220;DHT22;1116;51.502;7.414;2024-02-23T13:56:56;11.30;30.60
2220;DHT22;1116;51.502;7.414;2024-02-23T13:59:28;11.40;32.80
2220;DHT22;1116;51.502;7.414;2024-02-23T14:01:58;11.30;34.20
2220;DHT22;1116;51.502;7.414;2024-02-23T14:04:29;11.20;35.10
2220;DHT22;1116;51.502;7.414;2024-02-23T14:07:00;11.20;33.90
2220;DHT22;1116;51.502;7.414;2024-02-23T14:09:31;11.10;32.80
2220;DHT22;1116;51.502;7.414;2024-02-23T14:12:01;11.10;31.50
2220;DHT22;1116;51.502;7.414;2024-02-23T14:14:34;11.30;32.20
2220;DHT22;1116;51.502;7.414;2024-02-23T14:17:04;11.40;31.80
2220;DHT22;1116;51.502;7.414;2024-02-23T14:19:35;11.50;31.90
2220;DHT22;1116;51.502;7.414;2024-02-23T14:22:06;11.50;30.60
2220;DHT22;1116;51.502;7.414;2024-02-23T14:24:36;11.40;31.80
2220;DHT22;1116;51.502;7.414;2024-02-23T14:27:07;11.40;31.00
2220;DHT22;1116;51.502;7.414;2024-02-23T14:29:40;11.50;31.80
2220;DHT22;1116;51.502;7.414;2024-02-23T14:32:15;11.50;31.30
2220;DHT22;1116;51.502;7.414;2024-02-23T14:34:47;11.40;30.40
2220;DHT22;1116;51.502;7.414;2024-02-23T14:37:17;11.40;29.90
2220;DHT22;1116;51.502;7.414;2024-02-23T14:39:47;11.40;31.80
2220;DHT22;1116;51.502;7.414;2024-02-23T14:42:19;11.40;31.20
2220;DHT22;1116;51.502;7.414;2024-02-23T14:44:51;11.20;29.90
2220;DHT22;1116;51.502;7.414;2024-02-23T14:47:22;11.20;30.80
2220;DHT22;1116;51.502;7.414;2024-02-23T14:50:01;11.10;30.80
2220;DHT22;1116;51.502;7.414;2024-02-23T14:52:31;11.00;31.50
2220;DHT22;1116;51.502;7.414;2024-02-23T14:55:02;10.90;31.30
2220;DHT22;1116;51.502;7.414;2024-02-23T14:57:33;10.80;33.70
2220;DHT22;1116;51.502;7.414;2024-02-23T15:00:07;10.50;40.60
2220;DHT22;1116;51.502;7.414;2024-02-23T15:02:38;10.20;51.70
2220;DHT22;1116;51.502;7.414;2024-02-23T15:05:09;9.90;50.40
2220;DHT22;1116;51.502;7.414;2024-02-23T15:07:40;9.90;46.90
2220;DHT22;1116;51.502;7.414;2024-02-23T15:10:10;10.10;45.70
2220;DHT22;1116;51.502;7.414;2024-02-23T15:12:41;10.20;45.20
2220;DHT22;1116;51.502;7.414;2024-02-23T15:15:14;10.30;41.90
2220;DHT22;1116;51.502;7.414;2024-02-23T15:17:44;10.40;43.20
2220;DHT22;1116;51.502;7.414;2024-02-23T15:20:16;10.30;40.80
2220;DHT22;1116;51.502;7.414;2024-02-23T15:22:46;10.30;41.30
2220;DHT22;1116;51.502;7.414;2024-02-23T15:25:17;10.20;39.30
2220;DHT22;1116;51.502;7.414;2024-02-23T15:27:47;10.30;39.20
2220;DHT22;1116;51.502;7.414;2024-02-23T15:30:22;10.20;39.10
2220;DHT22;1116;51.502;7.414;2024-02-23T15:32:52;10.20;39.30
2220;DHT22;1116;51.502;7.414;2024-02-23T15:35:22;10.20;39.50
2220;DHT22;1116;51.502;7.414;2024-02-23T15:37:54;10.20;38.80
2220;DHT22;1116;51.502;7.414;2024-02-23T15:40:25;10.30;39.90
2220;DHT22;1116;51.502;7.414;2024-02-23T15:42:55;10.20;39.20
2220;DHT22;1116;51.502;7.414;2024-02-23T15:45:31;10.20;39.50
2220;DHT22;1116;51.502;7.414;2024-02-23T15:48:01;10.10;40.40
2220;DHT22;1116;51.502;7.414;2024-02-23T15:50:31;10.20;43.00
2220;DHT22;1116;51.502;7.414;2024-02-23T15:53:21;10.10;47.40
2220;DHT22;1116;51.502;7.414;2024-02-23T15:55:51;10.00;45.90
2220;DHT22;1116;51.502;7.414;2024-02-23T15:58:21;9.90;47.80
2220;DHT22;1116;51.502;7.414;2024-02-23T16:00:54;10.00;48.90
2220;DHT22;1116;51.502;7.414;2024-02-23T16:03:24;10.10;48.80
2220;DHT22;1116;51.502;7.414;2024-02-23T16:05:55;10.00;44.80
2220;DHT22;1116;51.502;7.414;2024-02-23T16:08:39;9.90;45.50
2220;DHT22;1116;51.502;7.414;2024-02-23T16:11:11;9.90;42.50
2220;DHT22;1116;51.502;7.414;2024-02-23T16:13:43;9.90;43.80
2220;DHT22;1116;51.502;7.414;2024-02-23T16:16:16;9.90;43.90
2220;DHT22;1116;51.502;7.414;2024-02-23T16:18:46;9.90;43.20
2220;DHT22;1116;51.502;7.414;2024-02-23T16:21:16;9.90;43.80
2220;DHT22;1116;51.502;7.414;2024-02-23T16:23:46;10.00;45.80
2220;DHT22;1116;51.502;7.414;2024-02-23T16:26:16;9.80;47.30
2220;DHT22;1116;51.502;7.414;2024-02-23T16:28:47;9.70;49.00
2220;DHT22;1116;51.502;7.414;2024-02-23T16:31:21;9.70;50.20
2220;DHT22;1116;51.502;7.414;2024-02-23T16:33:51;9.70;48.40
2220;DHT22;1116;51.502;7.414;2024-02-23T16:36:21;9.70;48.10
2220;DHT22;1116;51.502;7.414;2024-02-23T16:38:51;9.70;48.90